createdAt,value
2022-11-07T00:00:10.208Z,21.33
2022-11-07T00:05:41.150Z,18.63
2022-11-07T00:10:44.308Z,22.83
2022-11-07T00:15:47.201Z,23.20
2022-11-07T00:20:50.106Z,18.97
2022-11-07T00:25:53.101Z,18.40
2022-11-07T00:30:58.697Z,18.10
2022-11-07T00:36:02.069Z,23.97
2022-11-07T00:41:06.548Z,20.30
2022-11-07T00:46:11.085Z,22.30
2022-11-07T00:51:16.220Z,25.20
2022-11-07T00:56:21.450Z,20.93
2022-11-07T01:01:30.120Z,20.30
2022-11-07T01:06:36.597Z,24.27
2022-11-07T01:11:40.123Z,27.87
2022-11-07T01:16:43.420Z,25.70
2022-11-07T01:21:46.651Z,23.00
2022-11-07T01:26:49.695Z,24.53
2022-11-07T01:31:52.788Z,29.73
2022-11-07T01:36:56.120Z,30.67
2022-11-07T01:41:59.379Z,26.90
2022-11-07T01:47:02.524Z,27.80
2022-11-07T01:52:30.607Z,29.20
2022-11-07T01:57:37.812Z,23.33
2022-11-07T02:02:41.366Z,33.80
2022-11-07T02:07:44.699Z,27.50
2022-11-07T02:12:48.029Z,27.60
2022-11-07T02:17:51.128Z,30.03
2022-11-07T02:23:09.812Z,23.30
2022-11-07T02:28:14.064Z,29.47
2022-11-07T02:33:21.964Z,26.63
2022-11-07T02:38:36.322Z,27.20
2022-11-07T02:43:42.586Z,30.37
2022-11-07T02:48:51.079Z,32.40
2022-11-07T02:53:54.164Z,31.10
2022-11-07T02:58:57.129Z,28.07
2022-11-07T03:04:00.055Z,28.73
2022-11-07T03:09:03.052Z,28.17
2022-11-07T03:14:06.352Z,32.53
2022-11-07T03:19:09.560Z,29.27
2022-11-07T03:24:12.718Z,27.00
2022-11-07T03:29:16.070Z,27.57
2022-11-07T03:34:19.345Z,28.73
2022-11-07T03:39:25.752Z,33.50
2022-11-07T03:44:29.070Z,22.90
2022-11-07T03:49:32.142Z,28.23
2022-11-07T03:54:35.275Z,30.97
2022-11-07T03:59:38.241Z,30.70
2022-11-07T04:04:41.328Z,33.77
2022-11-07T04:09:44.359Z,36.57
2022-11-07T04:15:05.790Z,35.20
2022-11-07T04:20:09.639Z,29.70
2022-11-07T04:25:12.919Z,29.97
2022-11-07T04:30:20.358Z,30.13
2022-11-07T04:35:25.794Z,31.70
2022-11-07T04:40:29.617Z,30.60
2022-11-07T04:45:32.450Z,32.13
2022-11-07T04:50:35.279Z,40.80
2022-11-07T04:55:38.468Z,32.43
2022-11-07T05:00:43.901Z,34.83
2022-11-07T05:05:47.105Z,35.47
2022-11-07T05:10:50.418Z,36.60
2022-11-07T05:15:53.566Z,34.70
2022-11-07T05:20:56.657Z,32.13
2022-11-07T05:25:59.636Z,31.70
2022-11-07T05:31:04.700Z,36.70
2022-11-07T05:36:19.318Z,34.50
2022-11-07T05:41:22.233Z,36.50
2022-11-07T05:46:25.304Z,41.93
2022-11-07T05:51:28.253Z,41.67
2022-11-07T05:56:31.312Z,40.67
2022-11-07T06:01:34.385Z,39.97
2022-11-07T06:06:37.569Z,37.40
2022-11-07T06:11:40.612Z,42.00
2022-11-07T06:16:43.932Z,39.97
2022-11-07T06:21:46.981Z,44.57
2022-11-07T06:26:50.085Z,40.93
2022-11-07T06:31:53.051Z,49.20
2022-11-07T06:37:02.676Z,46.27
2022-11-07T06:42:06.025Z,49.87
2022-11-07T06:47:09.575Z,48.47
2022-11-07T06:52:12.646Z,52.40
2022-11-07T06:57:15.667Z,47.03
2022-11-07T07:02:37.286Z,49.07
2022-11-07T07:07:41.932Z,53.10
2022-11-07T07:12:45.040Z,49.43
2022-11-07T07:17:48.043Z,52.77
2022-11-07T07:22:57.808Z,45.37
2022-11-07T07:28:03.329Z,50.63
2022-11-07T07:33:06.309Z,48.43
2022-11-07T07:38:09.679Z,48.90
2022-11-07T07:43:13.154Z,45.13
2022-11-07T07:48:16.630Z,47.23
2022-11-07T07:53:19.456Z,45.07
2022-11-07T07:58:22.509Z,40.90
2022-11-07T08:03:29.386Z,42.77
2022-11-07T08:08:40.910Z,43.73
2022-11-07T08:13:44.050Z,40.13
2022-11-07T08:18:47.126Z,41.73
2022-11-07T08:23:53.765Z,40.60
2022-11-07T08:28:57.199Z,40.83
2022-11-07T08:34:00.534Z,40.93
2022-11-07T08:39:03.768Z,39.50
2022-11-07T08:44:08.496Z,41.53
2022-11-07T08:49:11.697Z,41.13
2022-11-07T08:54:14.899Z,38.53
2022-11-07T08:59:18.014Z,40.37
2022-11-07T09:04:23.751Z,42.77
2022-11-07T09:09:26.898Z,40.30
2022-11-07T09:14:32.219Z,40.63
2022-11-07T09:19:35.231Z,34.77
2022-11-07T09:24:38.656Z,36.43
2022-11-07T09:29:41.823Z,35.77
2022-11-07T09:34:54.366Z,43.07
2022-11-07T09:40:00.089Z,35.17
2022-11-07T09:45:03.773Z,36.17
2022-11-07T09:50:49.413Z,35.63
2022-11-07T09:55:54.056Z,36.23
2022-11-07T10:01:01.535Z,34.83
2022-11-07T10:06:24.351Z,33.20
2022-11-07T10:11:44.595Z,40.30
2022-11-07T10:17:12.540Z,32.33
2022-11-07T10:22:24.851Z,41.40
2022-11-07T10:27:27.952Z,31.97
2022-11-07T10:32:52.917Z,34.03
2022-11-07T10:37:57.602Z,32.17
2022-11-07T10:43:02.081Z,31.10
2022-11-07T10:48:05.837Z,31.63
2022-11-07T10:53:19.098Z,30.03
2022-11-07T10:58:23.410Z,28.67
2022-11-07T11:03:43.301Z,29.07
2022-11-07T11:08:49.141Z,31.17
2022-11-07T11:14:05.116Z,29.63
2022-11-07T11:19:19.414Z,27.70
2022-11-07T11:24:26.272Z,24.40
2022-11-07T11:29:42.156Z,25.37
2022-11-07T11:35:08.670Z,27.40
2022-11-07T11:40:21.643Z,28.80
2022-11-07T11:45:27.470Z,25.03
2022-11-07T11:50:41.789Z,27.80
2022-11-07T11:56:07.923Z,26.57
2022-11-07T12:01:29.389Z,22.27
2022-11-07T12:06:42.523Z,23.37
2022-11-07T12:11:51.798Z,28.90
2022-11-07T12:17:15.139Z,29.17
2022-11-07T12:22:59.862Z,28.00
2022-11-07T12:28:35.047Z,21.40
2022-11-07T12:34:03.230Z,24.60
2022-11-07T12:39:12.293Z,23.83
2022-11-07T12:44:33.681Z,22.57
2022-11-07T12:49:39.686Z,20.43
2022-11-07T12:54:52.068Z,20.67
2022-11-07T13:00:17.934Z,20.63
2022-11-07T13:05:55.903Z,19.90
2022-11-07T13:11:13.661Z,22.13
2022-11-07T13:16:29.567Z,19.37
2022-11-07T13:21:43.438Z,21.13
2022-11-07T13:26:47.652Z,19.10
2022-11-07T13:32:07.840Z,21.27
2022-11-07T13:37:19.696Z,20.27
2022-11-07T13:42:26.255Z,20.03
2022-11-07T13:47:37.987Z,22.43
2022-11-07T13:52:45.254Z,20.37
2022-11-07T13:57:56.261Z,35.30
2022-11-07T14:02:59.970Z,26.07
2022-11-07T14:08:12.205Z,19.83
2022-11-07T14:13:25.870Z,26.80
2022-11-07T14:18:33.313Z,34.57
2022-11-07T14:23:37.051Z,18.97
2022-11-07T14:28:41.113Z,24.23
2022-11-07T14:33:52.730Z,27.07
2022-11-07T14:39:02.425Z,15.60
2022-11-07T14:50:57.543Z,18.60
2022-11-07T14:56:04.535Z,20.50
2022-11-07T15:01:07.558Z,24.20
2022-11-07T15:06:21.926Z,24.03
2022-11-07T15:11:28.466Z,47.80
2022-11-07T15:16:39.391Z,28.13
2022-11-07T15:21:52.256Z,20.83
2022-11-07T15:27:04.091Z,39.67
2022-11-07T15:32:18.382Z,29.77
2022-11-07T15:37:24.141Z,17.87
2022-11-07T15:42:27.232Z,51.90
2022-11-07T15:47:30.319Z,34.50
2022-11-07T15:52:33.422Z,25.40
2022-11-07T15:57:36.721Z,33.23
2022-11-07T16:02:40.308Z,38.00
2022-11-07T16:07:44.701Z,27.33
2022-11-07T16:12:48.778Z,33.80
2022-11-07T16:17:51.697Z,20.23
2022-11-07T16:22:55.020Z,19.80
2022-11-07T16:28:00.046Z,26.27
2022-11-07T16:33:04.092Z,29.73
2022-11-07T16:38:16.293Z,17.97
2022-11-07T16:43:20.234Z,18.33
2022-11-07T16:48:25.644Z,18.70
2022-11-07T16:53:28.670Z,31.07
2022-11-07T16:58:34.498Z,20.83
2022-11-07T17:03:37.384Z,18.10
2022-11-07T17:08:41.556Z,34.37
2022-11-07T17:13:45.337Z,37.10
2022-11-07T17:18:49.295Z,29.10
2022-11-07T17:23:53.534Z,24.30
2022-11-07T17:28:57.849Z,26.80
2022-11-07T17:34:01.022Z,21.77
2022-11-07T17:39:12.162Z,14.90
2022-11-07T17:44:15.514Z,13.93
2022-11-07T17:49:19.630Z,14.87
2022-11-07T17:54:26.802Z,18.27
2022-11-07T17:59:32.521Z,16.17
2022-11-07T18:04:35.632Z,17.43
2022-11-07T18:09:40.663Z,9.67
2022-11-07T18:14:43.448Z,12.97
2022-11-07T18:19:48.342Z,14.60
2022-11-07T18:24:51.782Z,19.43
2022-11-07T18:29:57.061Z,13.03
2022-11-07T18:35:00.008Z,15.57
2022-11-07T18:40:03.458Z,17.43
2022-11-07T18:45:07.280Z,24.93
2022-11-07T18:50:11.370Z,19.27
2022-11-07T18:55:14.495Z,14.67
2022-11-07T19:00:17.593Z,21.27
2022-11-07T19:05:21.399Z,16.53
2022-11-07T19:10:24.699Z,12.43
2022-11-07T19:15:30.182Z,13.93
2022-11-07T19:20:34.429Z,13.20
2022-11-07T19:25:46.277Z,11.97
2022-11-07T19:30:49.428Z,14.93
2022-11-07T19:36:02.388Z,14.77
2022-11-07T19:41:09.164Z,14.60
2022-11-07T19:46:15.792Z,13.23
2022-11-07T19:51:22.438Z,14.07
2022-11-07T19:56:31.046Z,14.20
2022-11-07T20:01:35.333Z,26.47
2022-11-07T20:06:40.031Z,37.80
2022-11-07T20:11:43.336Z,77.20
2022-11-07T20:16:46.493Z,56.30
2022-11-07T20:21:49.525Z,18.60
2022-11-07T20:26:52.737Z,13.80
2022-11-07T20:31:55.676Z,10.83
2022-11-07T20:36:58.636Z,11.80
2022-11-07T20:42:01.779Z,10.13
2022-11-07T20:47:05.410Z,10.20
2022-11-07T20:52:08.531Z,11.40
2022-11-07T20:57:12.925Z,14.10
2022-11-07T21:02:16.186Z,18.63
2022-11-07T21:07:20.055Z,14.80
2022-11-07T21:12:23.682Z,13.30
2022-11-07T21:17:26.705Z,12.60
2022-11-07T21:22:29.848Z,11.87
2022-11-07T21:27:37.127Z,9.67
2022-11-07T21:32:40.948Z,12.20
2022-11-07T21:37:46.454Z,12.47
2022-11-07T21:42:49.394Z,10.07
2022-11-07T21:47:52.770Z,11.30
2022-11-07T21:52:55.812Z,13.10
2022-11-07T21:57:59.284Z,9.97
2022-11-07T22:03:02.616Z,9.20
2022-11-07T22:08:06.139Z,12.83
2022-11-07T22:13:09.640Z,13.53
2022-11-07T22:18:12.861Z,11.57
2022-11-07T22:23:16.296Z,15.87
2022-11-07T22:28:19.686Z,11.63
2022-11-07T22:33:22.882Z,11.37
2022-11-07T22:38:26.016Z,12.90
2022-11-07T22:43:32.073Z,10.93
2022-11-07T22:48:38.351Z,12.27
2022-11-07T22:53:41.679Z,13.17
2022-11-07T22:58:45.811Z,10.03
2022-11-07T23:03:49.389Z,9.13
2022-11-07T23:08:53.206Z,10.07
2022-11-07T23:14:03.206Z,10.30
2022-11-07T23:19:08.634Z,12.27
2022-11-07T23:24:11.937Z,11.07
2022-11-07T23:29:18.347Z,8.60
2022-11-07T23:34:22.436Z,10.83
2022-11-07T23:39:26.522Z,8.77
2022-11-07T23:44:29.412Z,12.03
2022-11-07T23:49:51.062Z,10.27
2022-11-07T23:55:12.825Z,9.17
